createdAt,value
2018-04-11T00:00:06.683Z,22.63
2018-04-11T00:01:06.682Z,22.61
2018-04-11T00:02:06.682Z,22.52
2018-04-11T00:03:06.665Z,22.65
2018-04-11T00:04:06.658Z,22.61
2018-04-11T00:05:06.651Z,22.56
2018-04-11T00:06:06.649Z,22.51
2018-04-11T00:07:06.641Z,22.59
2018-04-11T00:08:06.637Z,22.61
2018-04-11T00:09:06.631Z,22.63
2018-04-11T00:10:06.624Z,22.56
2018-04-11T00:11:06.618Z,22.62
2018-04-11T00:12:06.612Z,22.67
2018-04-11T00:13:06.606Z,22.59
2018-04-11T00:14:06.602Z,22.65
2018-04-11T00:15:06.595Z,22.58
2018-04-11T00:16:06.587Z,22.58
2018-04-11T00:17:06.587Z,22.65
2018-04-11T00:18:06.579Z,22.51
2018-04-11T00:19:06.576Z,22.49
2018-04-11T00:20:06.571Z,22.55
2018-04-11T00:21:06.562Z,22.52
2018-04-11T00:22:06.555Z,22.53
2018-04-11T00:23:06.550Z,22.53
2018-04-11T00:24:06.546Z,22.56
2018-04-11T00:25:06.545Z,22.52
2018-04-11T00:26:06.570Z,22.56
2018-04-11T00:27:06.557Z,22.53
2018-04-11T00:28:06.545Z,22.53
2018-04-11T00:29:06.533Z,22.63
2018-04-11T00:30:06.511Z,22.59
2018-04-11T00:31:06.501Z,22.63
2018-04-11T00:32:06.493Z,22.53
2018-04-11T00:33:06.486Z,22.53
2018-04-11T00:34:06.482Z,22.49
2018-04-11T00:35:06.477Z,22.51
2018-04-11T00:36:06.468Z,22.53
2018-04-11T00:37:06.465Z,22.51
2018-04-11T00:38:06.457Z,22.44
2018-04-11T00:39:06.452Z,22.56
2018-04-11T00:40:06.451Z,22.43
2018-04-11T00:41:06.438Z,22.55
2018-04-11T00:42:06.438Z,22.52
2018-04-11T00:43:06.424Z,22.58
2018-04-11T00:44:06.421Z,22.47
2018-04-11T00:45:06.419Z,22.47
2018-04-11T00:46:06.408Z,22.49
2018-04-11T00:47:06.403Z,22.55
2018-04-11T00:48:06.400Z,22.52
2018-04-11T00:49:06.390Z,22.47
2018-04-11T00:50:06.393Z,22.47
2018-04-11T00:51:06.380Z,22.53
2018-04-11T00:52:06.379Z,22.53
2018-04-11T00:53:06.367Z,22.52
2018-04-11T00:54:06.366Z,22.49
2018-04-11T00:55:06.360Z,22.49
2018-04-11T00:56:06.348Z,22.52
2018-04-11T00:57:06.343Z,22.53
2018-04-11T00:58:06.336Z,22.52
2018-04-11T00:59:06.331Z,22.44
2018-04-11T01:00:06.325Z,22.47
2018-04-11T01:01:06.321Z,22.47
2018-04-11T01:02:06.316Z,22.52
2018-04-11T01:03:06.309Z,22.55
2018-04-11T01:04:06.310Z,22.47
2018-04-11T01:05:06.292Z,22.56
2018-04-11T01:06:06.293Z,22.49
2018-04-11T01:07:06.281Z,22.52
2018-04-11T01:08:06.285Z,22.43
2018-04-11T01:09:06.272Z,22.53
2018-04-11T01:10:06.262Z,22.46
2018-04-11T01:11:06.259Z,22.53
2018-04-11T01:12:06.255Z,22.41
2018-04-11T01:13:06.252Z,22.52
2018-04-11T01:14:06.241Z,22.49
2018-04-11T01:15:06.234Z,22.44
2018-04-11T01:16:06.227Z,22.51
2018-04-11T01:17:06.222Z,22.51
2018-04-11T01:18:06.225Z,22.47
2018-04-11T01:19:06.215Z,22.55
2018-04-11T01:20:06.205Z,22.53
2018-04-11T01:21:06.208Z,22.41
2018-04-11T01:22:06.200Z,22.44
2018-04-11T01:23:06.188Z,22.43
2018-04-11T01:24:06.184Z,22.46
2018-04-11T01:25:06.182Z,22.43
2018-04-11T01:26:06.170Z,22.43
2018-04-11T01:27:06.161Z,22.36
2018-04-11T01:28:06.157Z,22.46
2018-04-11T01:29:06.152Z,22.37
2018-04-11T01:30:06.149Z,22.46
2018-04-11T01:31:06.138Z,22.40
2018-04-11T01:32:06.135Z,22.43
2018-04-11T01:33:06.130Z,22.44
2018-04-11T01:34:06.121Z,22.47
2018-04-11T01:35:06.116Z,22.41
2018-04-11T01:36:06.109Z,22.44
2018-04-11T01:37:06.105Z,22.38
2018-04-11T01:38:06.099Z,22.52
2018-04-11T01:39:06.096Z,22.41
2018-04-11T01:40:06.088Z,22.40
2018-04-11T01:41:06.081Z,22.38
2018-04-11T01:42:06.071Z,22.43
2018-04-11T01:43:06.064Z,22.40
2018-04-11T01:44:06.061Z,22.41
2018-04-11T01:45:06.058Z,22.41
2018-04-11T01:46:06.050Z,22.41
2018-04-11T01:47:06.045Z,22.36
2018-04-11T01:48:06.041Z,22.44
2018-04-11T01:49:06.032Z,22.41
2018-04-11T01:50:06.030Z,22.51
2018-04-11T01:51:06.018Z,22.40
2018-04-11T01:52:06.015Z,22.41
2018-04-11T01:53:06.008Z,22.44
2018-04-11T01:54:06.004Z,22.41
2018-04-11T01:55:06.000Z,22.43
2018-04-11T01:56:05.990Z,22.40
2018-04-11T01:57:05.984Z,22.44
2018-04-11T01:58:05.975Z,22.44
2018-04-11T01:59:05.970Z,22.40
2018-04-11T02:00:05.968Z,22.41
2018-04-11T02:01:05.964Z,22.38
2018-04-11T02:02:05.962Z,22.43
2018-04-11T02:03:05.950Z,22.41
2018-04-11T02:04:05.945Z,22.40
2018-04-11T02:05:05.939Z,22.43
2018-04-11T02:06:05.937Z,22.40
2018-04-11T02:07:05.927Z,22.34
2018-04-11T02:08:05.925Z,22.43
2018-04-11T02:09:05.915Z,22.40
2018-04-11T02:10:05.912Z,22.37
2018-04-11T02:11:05.903Z,22.38
2018-04-11T02:12:05.900Z,22.40
2018-04-11T02:13:05.891Z,22.41
2018-04-11T02:14:05.885Z,22.43
2018-04-11T02:15:05.878Z,22.44
2018-04-11T02:16:05.875Z,22.43
2018-04-11T02:17:05.868Z,22.40
2018-04-11T02:18:05.860Z,22.36
2018-04-11T02:19:05.857Z,22.31
2018-04-11T02:20:05.850Z,22.37
2018-04-11T02:21:05.843Z,22.38
2018-04-11T02:22:05.836Z,22.36
2018-04-11T02:23:05.834Z,22.38
2018-04-11T02:24:05.830Z,22.40
2018-04-11T02:25:05.817Z,22.37
2018-04-11T02:26:05.811Z,22.36
2018-04-11T02:27:05.807Z,22.36
2018-04-11T02:28:05.801Z,22.43
2018-04-11T02:29:05.795Z,22.43
2018-04-11T02:30:05.789Z,22.37
2018-04-11T02:31:05.783Z,22.34
2018-04-11T02:32:05.822Z,22.34
2018-04-11T02:33:05.774Z,22.34
2018-04-11T02:34:05.768Z,22.31
2018-04-11T02:35:05.767Z,22.38
2018-04-11T02:36:05.751Z,22.34
2018-04-11T02:37:05.744Z,22.40
2018-04-11T02:38:05.740Z,22.36
2018-04-11T02:39:05.735Z,22.37
2018-04-11T02:40:05.736Z,22.28
2018-04-11T02:41:05.730Z,22.38
2018-04-11T02:42:05.723Z,22.33
2018-04-11T02:43:05.713Z,22.40
2018-04-11T02:44:05.740Z,22.34
2018-04-11T02:45:05.737Z,22.34
2018-04-11T02:46:05.702Z,22.34
2018-04-11T02:47:05.688Z,22.38
2018-04-11T02:48:05.685Z,22.36
2018-04-11T02:49:05.676Z,22.34
2018-04-11T02:50:05.676Z,22.38
2018-04-11T02:51:05.663Z,22.36
2018-04-11T02:52:05.662Z,22.34
2018-04-11T02:53:05.652Z,22.36
2018-04-11T02:54:05.647Z,22.25
2018-04-11T02:55:05.640Z,22.31
2018-04-11T02:56:05.635Z,22.26
2018-04-11T02:57:05.626Z,22.37
2018-04-11T02:58:05.621Z,22.31
2018-04-11T02:59:05.615Z,22.28
2018-04-11T03:00:05.608Z,22.31
2018-04-11T03:01:05.613Z,22.30
2018-04-11T03:02:05.597Z,22.34
2018-04-11T03:03:05.591Z,22.28
2018-04-11T03:04:05.590Z,22.28
2018-04-11T03:05:05.580Z,22.25
2018-04-11T03:06:05.576Z,22.31
2018-04-11T03:07:05.571Z,22.30
2018-04-11T03:08:05.563Z,22.28
2018-04-11T03:09:05.560Z,22.33
2018-04-11T03:10:05.550Z,22.25
2018-04-11T03:11:05.543Z,22.26
2018-04-11T03:12:05.539Z,22.23
2018-04-11T03:13:05.540Z,22.25
2018-04-11T03:14:05.528Z,22.25
2018-04-11T03:15:05.520Z,22.30
2018-04-11T03:16:05.513Z,22.28
2018-04-11T03:17:05.515Z,22.28
2018-04-11T03:18:05.504Z,22.23
2018-04-11T03:19:05.498Z,22.25
2018-04-11T03:20:05.491Z,22.25
2018-04-11T03:21:05.484Z,22.26
2018-04-11T03:22:05.488Z,22.25
2018-04-11T03:23:05.471Z,22.30
2018-04-11T03:24:05.464Z,22.26
2018-04-11T03:25:05.460Z,22.23
2018-04-11T03:26:05.454Z,22.26
2018-04-11T03:27:05.447Z,22.21
2018-04-11T03:28:05.441Z,22.26
2018-04-11T03:29:05.446Z,22.25
2018-04-11T03:30:05.429Z,22.30
2018-04-11T03:31:05.425Z,22.28
2018-04-11T03:32:05.417Z,22.25
2018-04-11T03:33:05.411Z,22.23
2018-04-11T03:34:05.397Z,22.25
2018-04-11T03:35:05.401Z,22.28
2018-04-11T03:36:05.394Z,22.25
2018-04-11T03:37:05.387Z,22.25
2018-04-11T03:38:05.385Z,22.26
2018-04-11T03:39:05.381Z,22.25
2018-04-11T03:40:05.368Z,22.34
2018-04-11T03:41:05.362Z,22.34
2018-04-11T03:42:05.378Z,22.23
2018-04-11T03:43:05.358Z,22.36
2018-04-11T03:44:05.343Z,22.34
2018-04-11T03:45:05.342Z,22.31
2018-04-11T03:46:05.327Z,22.34
2018-04-11T03:47:05.329Z,22.26
2018-04-11T03:48:05.321Z,22.36
2018-04-11T03:49:05.322Z,22.40
2018-04-11T03:50:05.310Z,22.34
2018-04-11T03:51:05.307Z,22.30
2018-04-11T03:52:05.296Z,22.37
2018-04-11T03:53:05.296Z,22.38
2018-04-11T03:54:05.288Z,22.34
2018-04-11T03:55:05.283Z,22.38
2018-04-11T03:56:05.271Z,22.31
2018-04-11T03:57:05.270Z,22.31
2018-04-11T03:58:05.264Z,22.40
2018-04-11T03:59:05.255Z,22.34
2018-04-11T04:00:05.245Z,22.34
2018-04-11T04:01:05.238Z,22.36
2018-04-11T04:02:05.233Z,22.38
2018-04-11T04:03:05.225Z,22.38
2018-04-11T04:04:05.218Z,22.43
2018-04-11T04:05:05.210Z,22.41
2018-04-11T04:06:05.204Z,22.40
2018-04-11T04:07:05.194Z,22.44
2018-04-11T04:08:05.191Z,22.40
2018-04-11T04:09:05.188Z,22.40
2018-04-11T04:10:05.182Z,22.37
2018-04-11T04:11:05.168Z,22.40
2018-04-11T04:12:05.166Z,22.44
2018-04-11T04:13:05.155Z,22.37
2018-04-11T04:14:05.148Z,22.40
2018-04-11T04:15:05.142Z,22.38
2018-04-11T04:16:05.147Z,22.47
2018-04-11T04:17:05.130Z,22.38
2018-04-11T04:18:05.119Z,22.43
2018-04-11T04:19:05.111Z,22.52
2018-04-11T04:20:05.102Z,22.51
2018-04-11T04:21:05.093Z,22.46
2018-04-11T04:22:05.088Z,22.59
2018-04-11T04:23:05.087Z,22.51
2018-04-11T04:24:05.076Z,22.49
2018-04-11T04:25:05.067Z,22.46
2018-04-11T04:26:05.059Z,22.59
2018-04-11T04:27:05.053Z,22.47
2018-04-11T04:28:05.045Z,22.52
2018-04-11T04:29:05.044Z,22.55
2018-04-11T04:30:05.029Z,22.55
2018-04-11T04:31:05.022Z,22.63
2018-04-11T04:32:05.016Z,22.53
2018-04-11T04:33:05.008Z,22.67
2018-04-11T04:34:05.000Z,22.67
2018-04-11T04:35:04.991Z,22.56
2018-04-11T04:36:04.984Z,22.63
2018-04-11T04:37:04.984Z,22.59
2018-04-11T04:38:04.970Z,22.61
2018-04-11T04:39:04.961Z,22.58
2018-04-11T04:40:04.955Z,22.59
2018-04-11T04:41:04.949Z,22.59
2018-04-11T04:42:04.945Z,22.59
2018-04-11T04:43:04.934Z,22.61
2018-04-11T04:44:04.924Z,22.63
2018-04-11T04:45:04.916Z,22.61
2018-04-11T04:46:04.906Z,22.62
2018-04-11T04:47:04.901Z,22.65
2018-04-11T04:48:04.902Z,22.61
2018-04-11T04:49:04.900Z,22.63
2018-04-11T04:50:04.879Z,22.56
2018-04-11T04:51:04.871Z,22.61
2018-04-11T04:52:04.865Z,22.62
2018-04-11T04:53:04.855Z,22.61
2018-04-11T04:54:04.851Z,22.58
2018-04-11T04:55:04.847Z,22.61
2018-04-11T04:56:04.838Z,22.56
2018-04-11T04:57:04.829Z,22.59
2018-04-11T04:58:04.821Z,22.62
2018-04-11T04:59:04.812Z,22.62
2018-04-11T05:00:04.806Z,22.67
2018-04-11T05:01:04.801Z,22.68
2018-04-11T05:02:04.803Z,22.71
2018-04-11T05:03:04.797Z,22.70
2018-04-11T05:04:04.776Z,22.65
2018-04-11T05:05:04.775Z,22.67
2018-04-11T05:06:04.760Z,22.59
2018-04-11T05:07:04.754Z,22.62
2018-04-11T05:08:04.748Z,22.62
2018-04-11T05:09:04.739Z,22.56
2018-04-11T05:10:04.731Z,22.58
2018-04-11T05:11:04.723Z,22.63
2018-04-11T05:12:04.718Z,22.59
2018-04-11T05:13:04.706Z,22.62
2018-04-11T05:14:04.700Z,22.62
2018-04-11T05:15:04.692Z,22.63
2018-04-11T05:16:04.705Z,22.65
2018-04-11T05:17:04.679Z,22.58
2018-04-11T05:18:04.671Z,22.63
2018-04-11T05:19:04.666Z,22.56
2018-04-11T05:20:04.669Z,22.61
2018-04-11T05:21:04.653Z,22.63
2018-04-11T05:22:04.657Z,22.58
2018-04-11T05:23:04.635Z,22.58
2018-04-11T05:24:04.627Z,22.65
2018-04-11T05:25:04.614Z,22.59
2018-04-11T05:26:04.608Z,22.52
2018-04-11T05:27:04.607Z,22.49
2018-04-11T05:28:04.594Z,22.53
2018-04-11T05:29:04.588Z,22.53
2018-04-11T05:30:04.581Z,22.59
2018-04-11T05:31:04.571Z,22.56
2018-04-11T05:32:04.563Z,22.46
2018-04-11T05:33:04.556Z,22.46
2018-04-11T05:34:04.553Z,22.55
2018-04-11T05:35:04.543Z,22.51
2018-04-11T05:36:04.536Z,22.44
2018-04-11T05:37:04.526Z,22.46
2018-04-11T05:38:04.517Z,22.56
2018-04-11T05:39:04.510Z,22.51
2018-04-11T05:40:04.543Z,22.63
2018-04-11T05:41:04.495Z,22.53
2018-04-11T05:42:04.487Z,22.53
2018-04-11T05:43:04.480Z,22.55
2018-04-11T05:44:04.476Z,22.65
2018-04-11T05:45:04.465Z,22.65
2018-04-11T05:46:04.457Z,22.65
2018-04-11T05:47:04.448Z,22.59
2018-04-11T05:48:04.446Z,22.61
2018-04-11T05:49:04.434Z,22.63
2018-04-11T05:50:04.428Z,22.56
2018-04-11T05:51:04.417Z,22.59
2018-04-11T05:52:04.412Z,22.62
2018-04-11T05:53:04.429Z,22.65
2018-04-11T05:54:04.398Z,22.58
2018-04-11T05:55:04.391Z,22.62
2018-04-11T05:56:04.380Z,22.61
2018-04-11T05:57:04.370Z,22.56
2018-04-11T05:58:04.366Z,22.63
2018-04-11T05:59:04.360Z,22.65
2018-04-11T06:00:04.350Z,22.67
2018-04-11T06:01:04.343Z,22.71
2018-04-11T06:02:04.335Z,22.68
2018-04-11T06:03:04.328Z,22.74
2018-04-11T06:04:04.320Z,22.73
2018-04-11T06:05:04.313Z,22.70
2018-04-11T06:06:04.312Z,22.70
2018-04-11T06:07:04.413Z,22.67
2018-04-11T06:08:04.291Z,22.71
2018-04-11T06:09:04.283Z,22.70
2018-04-11T06:10:04.278Z,22.71
2018-04-11T06:11:04.267Z,22.71
2018-04-11T06:12:04.258Z,22.67
2018-04-11T06:13:04.253Z,22.74
2018-04-11T06:14:04.245Z,22.63
2018-04-11T06:15:04.236Z,22.70
2018-04-11T06:16:04.225Z,22.58
2018-04-11T06:17:04.233Z,22.68
2018-04-11T06:18:04.212Z,22.62
2018-04-11T06:19:04.211Z,22.61
2018-04-11T06:20:04.211Z,22.56
2018-04-11T06:21:04.191Z,22.62
2018-04-11T06:22:04.184Z,22.61
2018-04-11T06:23:04.185Z,22.56
2018-04-11T06:24:04.164Z,22.63
2018-04-11T06:25:04.168Z,22.63
2018-04-11T06:26:04.159Z,22.61
2018-04-11T06:27:04.146Z,22.67
2018-04-11T06:28:04.197Z,22.71
2018-04-11T06:29:04.139Z,22.68
2018-04-11T06:30:04.132Z,22.74
2018-04-11T06:31:04.115Z,22.76
2018-04-11T06:32:04.108Z,22.71
2018-04-11T06:33:04.106Z,22.73
2018-04-11T06:34:04.095Z,22.63
2018-04-11T06:35:04.112Z,22.68
2018-04-11T06:36:04.075Z,22.73
2018-04-11T06:37:04.080Z,22.63
2018-04-11T06:38:04.079Z,22.63
2018-04-11T06:39:04.056Z,22.77
2018-04-11T06:40:04.049Z,22.67
2018-04-11T06:41:04.042Z,22.71
2018-04-11T06:42:04.142Z,22.67
2018-04-11T06:43:04.027Z,22.70
2018-04-11T06:44:04.020Z,22.71
2018-04-11T06:45:04.034Z,22.73
2018-04-11T06:46:04.011Z,22.73
2018-04-11T06:47:03.994Z,22.74
2018-04-11T06:48:03.989Z,22.70
2018-04-11T06:49:03.979Z,22.73
2018-04-11T06:50:03.977Z,22.67
2018-04-11T06:51:03.970Z,22.74
2018-04-11T06:52:03.958Z,22.76
2018-04-11T06:53:03.954Z,22.71
2018-04-11T06:54:03.943Z,22.71
2018-04-11T06:55:03.939Z,22.67
2018-04-11T06:56:03.928Z,22.76
2018-04-11T06:57:03.920Z,22.67
2018-04-11T06:58:03.913Z,22.77
2018-04-11T06:59:03.905Z,22.73
2018-04-11T07:00:03.899Z,22.73
2018-04-11T07:01:03.886Z,22.74
2018-04-11T07:02:03.885Z,22.81
2018-04-11T07:03:03.874Z,22.73
2018-04-11T07:04:03.876Z,22.77
2018-04-11T07:05:03.861Z,22.81
2018-04-11T07:06:03.854Z,22.78
2018-04-11T07:07:03.846Z,22.76
2018-04-11T07:08:03.840Z,22.78
2018-04-11T07:09:03.833Z,22.78
2018-04-11T07:10:03.824Z,22.83
2018-04-11T07:11:03.815Z,22.83
2018-04-11T07:12:03.806Z,22.81
2018-04-11T07:13:03.802Z,22.81
2018-04-11T07:14:03.799Z,22.83
2018-04-11T07:15:03.782Z,22.80
2018-04-11T07:16:03.779Z,22.96
2018-04-11T07:17:03.778Z,22.95
2018-04-11T07:18:03.765Z,22.93
2018-04-11T07:19:03.756Z,23.02
2018-04-11T07:20:03.748Z,23.06
2018-04-11T07:21:03.741Z,23.07
2018-04-11T07:22:03.735Z,23.08
2018-04-11T07:23:03.724Z,23.13
2018-04-11T07:24:03.719Z,23.17
2018-04-11T07:25:03.725Z,23.18
2018-04-11T07:26:03.704Z,23.16
2018-04-11T07:27:03.698Z,23.13
2018-04-11T07:28:03.691Z,23.14
2018-04-11T07:29:03.681Z,23.16
2018-04-11T07:30:03.678Z,23.14
2018-04-11T07:31:03.673Z,23.04
2018-04-11T07:32:03.654Z,23.08
2018-04-11T07:33:03.651Z,23.11
2018-04-11T07:34:03.652Z,23.06
2018-04-11T07:35:03.643Z,23.08
2018-04-11T07:36:03.630Z,23.11
2018-04-11T07:37:03.622Z,23.08
2018-04-11T07:38:03.647Z,23.10
2018-04-11T07:39:03.607Z,23.11
2018-04-11T07:40:03.651Z,23.13
2018-04-11T07:41:03.596Z,23.16
2018-04-11T07:42:03.589Z,23.14
2018-04-11T07:43:03.587Z,23.18
2018-04-11T07:44:03.571Z,23.26
2018-04-11T07:45:03.567Z,23.26
2018-04-11T07:46:03.607Z,23.28
2018-04-11T07:47:03.547Z,23.21
2018-04-11T07:48:03.550Z,23.25
2018-04-11T07:49:03.539Z,23.29
2018-04-11T07:50:03.528Z,23.32
2018-04-11T07:51:03.520Z,23.34
2018-04-11T07:52:03.513Z,23.39
2018-04-11T07:53:03.506Z,23.28
2018-04-11T07:54:03.499Z,23.34
2018-04-11T07:55:03.495Z,23.40
2018-04-11T07:56:03.486Z,23.42
2018-04-11T07:57:03.477Z,23.44
2018-04-11T07:58:03.475Z,23.52
2018-04-11T07:59:03.460Z,23.58
2018-04-11T08:00:03.455Z,23.71
2018-04-11T08:01:03.450Z,23.77
2018-04-11T08:02:03.448Z,23.71
2018-04-11T08:03:03.435Z,23.73
2018-04-11T08:04:03.427Z,23.82
2018-04-11T08:05:03.421Z,23.88
2018-04-11T08:06:03.412Z,23.92
2018-04-11T08:07:03.410Z,23.96
2018-04-11T08:08:03.399Z,23.95
2018-04-11T08:09:03.393Z,24.01
2018-04-11T08:10:03.425Z,24.07
2018-04-11T08:11:03.378Z,24.11
2018-04-11T08:12:03.373Z,24.13
2018-04-11T08:13:03.362Z,24.19
2018-04-11T08:14:03.357Z,24.14
2018-04-11T08:15:03.354Z,24.29
2018-04-11T08:16:03.349Z,24.26
2018-04-11T08:17:03.341Z,24.26
2018-04-11T08:18:03.333Z,24.36
2018-04-11T08:19:03.323Z,24.36
2018-04-11T08:20:03.318Z,24.47
2018-04-11T08:21:03.309Z,24.48
2018-04-11T08:22:03.307Z,24.47
2018-04-11T08:23:03.292Z,24.48
2018-04-11T08:24:03.290Z,24.50
2018-04-11T08:25:03.290Z,24.59
2018-04-11T08:26:03.275Z,24.51
2018-04-11T08:27:03.269Z,24.65
2018-04-11T08:28:03.262Z,24.58
2018-04-11T08:29:03.261Z,24.61
2018-04-11T08:30:03.253Z,24.63
2018-04-11T08:31:03.243Z,24.66
2018-04-11T08:32:03.244Z,24.68
2018-04-11T08:33:03.230Z,24.78
2018-04-11T08:34:03.223Z,24.82
2018-04-11T08:35:03.220Z,24.92
2018-04-11T08:36:03.214Z,24.92
2018-04-11T08:37:03.204Z,24.93
2018-04-11T08:38:03.199Z,24.97
2018-04-11T08:39:03.190Z,25.03
2018-04-11T08:40:03.185Z,25.00
2018-04-11T08:41:03.181Z,25.01
2018-04-11T08:42:03.173Z,25.04
2018-04-11T08:43:03.166Z,25.00
2018-04-11T08:44:03.178Z,25.12
2018-04-11T08:45:03.157Z,25.12
2018-04-11T08:46:03.148Z,25.06
2018-04-11T08:47:03.144Z,25.09
2018-04-11T08:48:03.134Z,25.15
2018-04-11T08:49:03.130Z,25.19
2018-04-11T08:50:03.122Z,25.19
2018-04-11T08:51:03.122Z,25.21
2018-04-11T08:52:03.120Z,25.19
2018-04-11T08:53:03.105Z,25.22
2018-04-11T08:54:03.100Z,25.18
2018-04-11T08:55:03.090Z,25.21
2018-04-11T08:56:03.089Z,25.31
2018-04-11T08:57:03.080Z,25.34
2018-04-11T08:58:03.074Z,25.36
2018-04-11T08:59:03.069Z,25.34
2018-04-11T09:00:03.062Z,25.33
2018-04-11T09:01:03.060Z,25.37
2018-04-11T09:02:03.050Z,25.46
2018-04-11T09:03:03.046Z,25.43
2018-04-11T09:04:03.038Z,25.46
2018-04-11T09:05:03.033Z,25.56
2018-04-11T09:06:03.025Z,25.51
2018-04-11T09:07:03.024Z,25.55
2018-04-11T09:08:03.013Z,25.43
2018-04-11T09:09:03.007Z,25.58
2018-04-11T09:10:03.008Z,25.58
2018-04-11T09:11:03.001Z,25.56
2018-04-11T09:12:02.990Z,25.54
2018-04-11T09:13:02.990Z,25.66
2018-04-11T09:14:02.982Z,25.63
2018-04-11T09:15:02.976Z,25.59
2018-04-11T09:16:02.967Z,25.62
2018-04-11T09:17:02.961Z,25.68
2018-04-11T09:18:02.957Z,25.71
2018-04-11T09:19:02.948Z,25.74
2018-04-11T09:20:02.942Z,25.76
2018-04-11T09:21:02.938Z,25.77
2018-04-11T09:22:02.937Z,25.76
2018-04-11T09:23:02.930Z,25.80
2018-04-11T09:24:02.922Z,25.81
2018-04-11T09:25:02.914Z,25.83
2018-04-11T09:26:02.929Z,25.81
2018-04-11T09:27:02.903Z,25.86
2018-04-11T09:28:02.903Z,25.85
2018-04-11T09:29:02.894Z,25.85
2018-04-11T09:30:02.899Z,25.93
2018-04-11T09:31:02.881Z,25.85
2018-04-11T09:32:02.875Z,25.86
2018-04-11T09:33:02.910Z,25.95
2018-04-11T09:34:02.863Z,25.95
2018-04-11T09:35:02.864Z,25.89
2018-04-11T09:36:02.855Z,25.96
2018-04-11T09:37:02.849Z,26.04
2018-04-11T09:38:02.899Z,25.99
2018-04-11T09:39:02.839Z,25.99
2018-04-11T09:40:02.832Z,25.99
2018-04-11T09:41:02.826Z,25.98
2018-04-11T09:42:02.823Z,25.98
2018-04-11T09:43:02.812Z,26.01
2018-04-11T09:44:02.816Z,26.08
2018-04-11T09:45:02.813Z,26.08
2018-04-11T09:46:02.797Z,26.07
2018-04-11T09:47:02.795Z,26.11
2018-04-11T09:48:02.788Z,26.08
2018-04-11T09:49:02.783Z,26.04
2018-04-11T09:50:02.778Z,26.11
2018-04-11T09:51:02.774Z,26.03
2018-04-11T09:52:02.765Z,26.01
2018-04-11T09:53:02.761Z,26.07
2018-04-11T09:54:02.759Z,26.08
2018-04-11T09:55:02.749Z,26.16
2018-04-11T09:56:02.742Z,26.15
2018-04-11T09:57:02.737Z,26.16
2018-04-11T09:58:02.729Z,26.13
2018-04-11T09:59:02.725Z,26.13
2018-04-11T10:00:02.726Z,26.10
2018-04-11T10:01:02.713Z,26.24
2018-04-11T10:02:02.721Z,26.27
2018-04-11T10:03:02.702Z,26.27
2018-04-11T10:04:02.702Z,26.29
2018-04-11T10:05:02.692Z,26.30
2018-04-11T10:06:02.690Z,26.27
2018-04-11T10:07:02.678Z,26.29
2018-04-11T10:08:02.678Z,26.33
2018-04-11T10:09:02.670Z,26.30
2018-04-11T10:10:02.666Z,26.31
2018-04-11T10:11:02.663Z,26.34
2018-04-11T10:12:02.656Z,26.31
2018-04-11T10:13:02.650Z,26.31
2018-04-11T10:14:02.646Z,26.39
2018-04-11T10:15:02.639Z,26.37
2018-04-11T10:16:02.633Z,26.39
2018-04-11T10:17:02.630Z,26.41
2018-04-11T10:18:02.654Z,26.45
2018-04-11T10:19:02.620Z,26.44
2018-04-11T10:20:02.619Z,26.39
2018-04-11T10:21:02.608Z,26.33
2018-04-11T10:22:02.611Z,26.39
2018-04-11T10:23:02.598Z,26.48
2018-04-11T10:24:02.591Z,26.37
2018-04-11T10:25:02.584Z,26.45
2018-04-11T10:26:02.581Z,26.48
2018-04-11T10:27:02.577Z,26.45
2018-04-11T10:28:02.579Z,26.48
2018-04-11T10:29:02.563Z,26.48
2018-04-11T10:30:02.562Z,26.37
2018-04-11T10:31:02.560Z,26.46
2018-04-11T10:32:02.577Z,26.51
2018-04-11T10:33:02.543Z,26.46
2018-04-11T10:34:02.541Z,26.52
2018-04-11T10:35:02.535Z,26.51
2018-04-11T10:36:02.530Z,26.52
2018-04-11T10:37:02.528Z,26.48
2018-04-11T10:38:02.568Z,26.60
2018-04-11T10:39:02.514Z,26.56
2018-04-11T10:40:02.510Z,26.53
2018-04-11T10:41:02.512Z,26.59
2018-04-11T10:42:02.507Z,26.59
2018-04-11T10:43:02.495Z,26.59
2018-04-11T10:44:02.492Z,26.53
2018-04-11T10:45:02.483Z,26.46
2018-04-11T10:46:02.481Z,26.61
2018-04-11T10:47:02.474Z,26.55
2018-04-11T10:48:02.467Z,26.53
2018-04-11T10:49:02.461Z,26.48
2018-04-11T10:50:02.465Z,26.59
2018-04-11T10:51:02.451Z,26.55
2018-04-11T10:52:02.449Z,26.63
2018-04-11T10:53:02.442Z,26.61
2018-04-11T10:54:02.439Z,26.56
2018-04-11T10:55:02.432Z,26.55
2018-04-11T10:56:02.428Z,26.61
2018-04-11T10:57:02.425Z,26.53
2018-04-11T10:58:02.418Z,26.61
2018-04-11T10:59:02.418Z,26.59
2018-04-11T11:00:02.408Z,26.56
2018-04-11T11:01:02.402Z,26.59
2018-04-11T11:02:02.400Z,26.67
2018-04-11T11:03:02.403Z,26.63
2018-04-11T11:04:02.386Z,26.56
2018-04-11T11:05:02.380Z,26.61
2018-04-11T11:06:02.375Z,26.64
2018-04-11T11:07:02.371Z,26.63
2018-04-11T11:08:02.369Z,26.55
2018-04-11T11:09:02.372Z,26.61
2018-04-11T11:10:02.356Z,26.64
2018-04-11T11:11:02.351Z,26.64
2018-04-11T11:12:02.347Z,26.68
2018-04-11T11:13:02.339Z,26.59
2018-04-11T11:14:02.341Z,26.60
2018-04-11T11:15:02.330Z,26.63
2018-04-11T11:16:02.326Z,26.60
2018-04-11T11:17:02.323Z,26.52
2018-04-11T11:18:02.339Z,26.63
2018-04-11T11:19:02.310Z,26.60
2018-04-11T11:20:02.317Z,26.59
2018-04-11T11:21:02.309Z,26.67
2018-04-11T11:22:02.300Z,26.55
2018-04-11T11:23:02.290Z,26.51
2018-04-11T11:24:02.288Z,26.60
2018-04-11T11:25:02.279Z,26.61
2018-04-11T11:26:02.278Z,26.60
2018-04-11T11:27:02.275Z,26.67
2018-04-11T11:28:02.267Z,26.55
2018-04-11T11:29:02.262Z,26.61
2018-04-11T11:30:02.256Z,26.63
2018-04-11T11:31:02.250Z,26.66
2018-04-11T11:32:02.246Z,26.63
2018-04-11T11:33:02.245Z,26.49
2018-04-11T11:34:02.235Z,26.49
2018-04-11T11:35:02.231Z,26.53
2018-04-11T11:36:02.223Z,26.56
2018-04-11T11:37:02.223Z,26.63
2018-04-11T11:38:02.215Z,26.56
2018-04-11T11:39:02.209Z,26.61
2018-04-11T11:40:02.226Z,26.56
2018-04-11T11:41:02.206Z,26.52
2018-04-11T11:42:02.220Z,26.55
2018-04-11T11:43:02.188Z,26.56
2018-04-11T11:44:02.184Z,26.52
2018-04-11T11:45:02.180Z,26.52
2018-04-11T11:46:02.174Z,26.52
2018-04-11T11:47:02.168Z,26.52
2018-04-11T11:48:02.171Z,26.49
2018-04-11T11:49:02.160Z,26.52
2018-04-11T11:50:02.156Z,26.48
2018-04-11T11:51:02.147Z,26.52
2018-04-11T11:52:02.184Z,26.48
2018-04-11T11:53:02.141Z,26.44
2018-04-11T11:54:02.135Z,26.49
2018-04-11T11:55:02.126Z,26.46
2018-04-11T11:56:02.129Z,26.45
2018-04-11T11:57:02.118Z,26.37
2018-04-11T11:58:02.121Z,26.48
2018-04-11T11:59:02.106Z,26.48
2018-04-11T12:00:02.101Z,26.37
2018-04-11T12:01:02.098Z,26.44
2018-04-11T12:02:02.092Z,26.36
2018-04-11T12:03:02.102Z,26.29
2018-04-11T12:04:02.084Z,26.34
2018-04-11T12:05:02.076Z,26.34
2018-04-11T12:06:02.072Z,26.30
2018-04-11T12:07:02.079Z,26.30
2018-04-11T12:08:02.061Z,26.30
2018-04-11T12:09:02.055Z,26.24
2018-04-11T12:10:02.051Z,26.30
2018-04-11T12:11:02.044Z,26.24
2018-04-11T12:12:02.037Z,26.26
2018-04-11T12:13:02.032Z,26.31
2018-04-11T12:14:02.036Z,26.29
2018-04-11T12:15:02.030Z,26.26
2018-04-11T12:16:02.028Z,26.22
2018-04-11T12:17:02.018Z,26.08
2018-04-11T12:18:02.008Z,26.16
2018-04-11T12:19:02.003Z,26.16
2018-04-11T12:20:01.999Z,26.22
2018-04-11T12:21:01.993Z,26.22
2018-04-11T12:22:01.987Z,26.18
2018-04-11T12:23:01.984Z,26.16
2018-04-11T12:24:01.975Z,26.13
2018-04-11T12:25:02.003Z,26.06
2018-04-11T12:26:01.986Z,26.04
2018-04-11T12:27:01.971Z,25.99
2018-04-11T12:28:01.955Z,26.03
2018-04-11T12:29:01.954Z,26.01
2018-04-11T12:30:01.941Z,26.10
2018-04-11T12:31:01.938Z,25.99
2018-04-11T12:32:01.951Z,25.99
2018-04-11T12:33:01.931Z,26.04
2018-04-11T12:34:01.931Z,26.11
2018-04-11T12:35:01.917Z,26.07
2018-04-11T12:36:01.913Z,26.10
2018-04-11T12:37:01.907Z,25.99
2018-04-11T12:38:01.901Z,26.03
2018-04-11T12:39:01.895Z,26.06
2018-04-11T12:40:01.893Z,25.96
2018-04-11T12:41:01.892Z,26.07
2018-04-11T12:42:01.881Z,25.99
2018-04-11T12:43:01.880Z,25.99
2018-04-11T12:44:01.868Z,25.98
2018-04-11T12:45:01.866Z,26.01
2018-04-11T12:46:01.859Z,25.92
2018-04-11T12:47:01.852Z,25.86
2018-04-11T12:48:01.849Z,25.96
2018-04-11T12:49:01.843Z,25.85
2018-04-11T12:50:01.842Z,25.85
2018-04-11T12:51:01.831Z,25.81
2018-04-11T12:52:01.830Z,25.78